Terminal Aerodrome Forecast
Issued by NWS Wakefield, VA

Home | Current Version | Previous Version | Text Only | Print | Product List | Glossary On
Versions: 1 2 3 4 5 6 7 8 9 10 11 12 13 14 15
000
FTUS41 KAKQ 201100
TAFSBY
TAF
KSBY 201120Z 2012/2112 18003KT P6SM SCT250
     FM201500 20010KT P6SM BKN250
     FM210400 19003KT P6SM OVC120=

USA.gov is the U.S. government's official web portal to all federal, state and local government web resources and services.